sensor_id;sensor_type;location;lat;lon;timestamp;P1;durP1;ratioP1;P2;durP2;ratioP2
64029;SDS011;50277;52.064;4.492;2024-03-07T00:00:19;43.30;;;27.60;;
64029;SDS011;50277;52.064;4.492;2024-03-07T00:02:49;49.13;;;30.48;;
64029;SDS011;50277;52.064;4.492;2024-03-07T00:05:19;45.47;;;27.63;;
64029;SDS011;50277;52.064;4.492;2024-03-07T00:07:45;49.50;;;29.35;;
64029;SDS011;50277;52.064;4.492;2024-03-07T00:10:14;47.75;;;27.95;;
64029;SDS011;50277;52.064;4.492;2024-03-07T00:12:40;46.92;;;28.67;;
64029;SDS011;50277;52.064;4.492;2024-03-07T00:15:06;44.75;;;28.58;;
64029;SDS011;50277;52.064;4.492;2024-03-07T00:17:32;47.63;;;28.40;;
64029;SDS011;50277;52.064;4.492;2024-03-07T00:19:59;43.80;;;28.80;;
64029;SDS011;50277;52.064;4.492;2024-03-07T00:22:25;50.67;;;29.20;;
64029;SDS011;50277;52.064;4.492;2024-03-07T00:24:52;41.33;;;28.52;;
64029;SDS011;50277;52.064;4.492;2024-03-07T00:27:18;49.45;;;28.85;;
64029;SDS011;50277;52.064;4.492;2024-03-07T00:29:44;47.60;;;29.20;;
64029;SDS011;50277;52.064;4.492;2024-03-07T00:32:17;50.80;;;29.85;;
64029;SDS011;50277;52.064;4.492;2024-03-07T00:34:43;49.67;;;30.33;;
64029;SDS011;50277;52.064;4.492;2024-03-07T00:37:09;48.90;;;30.40;;
64029;SDS011;50277;52.064;4.492;2024-03-07T00:39:34;54.45;;;31.02;;
64029;SDS011;50277;52.064;4.492;2024-03-07T00:42:00;55.17;;;31.50;;
64029;SDS011;50277;52.064;4.492;2024-03-07T00:44:25;46.80;;;29.67;;
64029;SDS011;50277;52.064;4.492;2024-03-07T00:46:51;48.20;;;29.10;;
64029;SDS011;50277;52.064;4.492;2024-03-07T00:49:17;48.90;;;31.08;;
64029;SDS011;50277;52.064;4.492;2024-03-07T00:51:42;52.63;;;30.30;;
64029;SDS011;50277;52.064;4.492;2024-03-07T00:54:08;50.95;;;29.10;;
64029;SDS011;50277;52.064;4.492;2024-03-07T00:56:34;50.03;;;29.83;;
64029;SDS011;50277;52.064;4.492;2024-03-07T00:59:01;48.42;;;29.95;;
64029;SDS011;50277;52.064;4.492;2024-03-07T01:01:26;49.20;;;30.55;;
64029;SDS011;50277;52.064;4.492;2024-03-07T01:03:51;46.72;;;29.05;;
64029;SDS011;50277;52.064;4.492;2024-03-07T01:06:17;44.25;;;28.02;;
64029;SDS011;50277;52.064;4.492;2024-03-07T01:08:42;50.08;;;29.75;;
64029;SDS011;50277;52.064;4.492;2024-03-07T01:11:08;49.20;;;30.00;;
64029;SDS011;50277;52.064;4.492;2024-03-07T01:13:37;47.40;;;30.17;;
64029;SDS011;50277;52.064;4.492;2024-03-07T01:16:03;47.33;;;29.45;;
64029;SDS011;50277;52.064;4.492;2024-03-07T01:18:29;49.60;;;29.95;;
64029;SDS011;50277;52.064;4.492;2024-03-07T01:20:54;50.50;;;30.00;;
64029;SDS011;50277;52.064;4.492;2024-03-07T01:23:20;49.25;;;29.52;;
64029;SDS011;50277;52.064;4.492;2024-03-07T01:25:46;47.72;;;29.10;;
64029;SDS011;50277;52.064;4.492;2024-03-07T01:28:11;49.65;;;29.90;;
64029;SDS011;50277;52.064;4.492;2024-03-07T01:30:37;47.50;;;30.23;;
64029;SDS011;50277;52.064;4.492;2024-03-07T01:33:03;45.28;;;27.65;;
64029;SDS011;50277;52.064;4.492;2024-03-07T01:35:28;45.85;;;29.75;;
64029;SDS011;50277;52.064;4.492;2024-03-07T01:37:54;45.58;;;28.80;;
64029;SDS011;50277;52.064;4.492;2024-03-07T01:40:19;50.45;;;30.20;;
64029;SDS011;50277;52.064;4.492;2024-03-07T01:42:46;47.97;;;29.45;;
64029;SDS011;50277;52.064;4.492;2024-03-07T01:45:13;48.60;;;30.30;;
64029;SDS011;50277;52.064;4.492;2024-03-07T01:47:38;48.60;;;29.92;;
64029;SDS011;50277;52.064;4.492;2024-03-07T01:50:04;46.03;;;29.25;;
64029;SDS011;50277;52.064;4.492;2024-03-07T01:52:30;44.45;;;26.67;;
64029;SDS011;50277;52.064;4.492;2024-03-07T01:54:56;45.95;;;28.98;;
64029;SDS011;50277;52.064;4.492;2024-03-07T01:57:21;52.25;;;28.02;;
64029;SDS011;50277;52.064;4.492;2024-03-07T01:59:47;48.97;;;27.88;;
64029;SDS011;50277;52.064;4.492;2024-03-07T02:02:13;51.88;;;30.90;;
64029;SDS011;50277;52.064;4.492;2024-03-07T02:04:38;48.15;;;31.17;;
64029;SDS011;50277;52.064;4.492;2024-03-07T02:07:04;44.38;;;28.75;;
64029;SDS011;50277;52.064;4.492;2024-03-07T02:09:29;52.50;;;29.60;;
64029;SDS011;50277;52.064;4.492;2024-03-07T02:11:54;46.75;;;27.67;;
64029;SDS011;50277;52.064;4.492;2024-03-07T02:14:21;51.00;;;29.88;;
64029;SDS011;50277;52.064;4.492;2024-03-07T02:16:46;47.35;;;28.92;;
64029;SDS011;50277;52.064;4.492;2024-03-07T02:19:13;47.42;;;28.27;;
64029;SDS011;50277;52.064;4.492;2024-03-07T02:21:40;47.80;;;28.40;;
64029;SDS011;50277;52.064;4.492;2024-03-07T02:24:05;48.70;;;29.38;;
64029;SDS011;50277;52.064;4.492;2024-03-07T02:26:30;49.10;;;28.90;;
64029;SDS011;50277;52.064;4.492;2024-03-07T02:28:56;48.00;;;28.05;;
64029;SDS011;50277;52.064;4.492;2024-03-07T02:31:21;49.00;;;29.73;;
64029;SDS011;50277;52.064;4.492;2024-03-07T02:33:59;53.15;;;29.17;;
64029;SDS011;50277;52.064;4.492;2024-03-07T02:36:26;49.60;;;29.85;;
64029;SDS011;50277;52.064;4.492;2024-03-07T02:38:52;50.38;;;29.13;;
64029;SDS011;50277;52.064;4.492;2024-03-07T02:41:17;50.80;;;30.92;;
64029;SDS011;50277;52.064;4.492;2024-03-07T02:43:43;50.13;;;29.95;;
64029;SDS011;50277;52.064;4.492;2024-03-07T02:46:08;52.80;;;29.95;;
64029;SDS011;50277;52.064;4.492;2024-03-07T02:48:36;47.25;;;29.05;;
64029;SDS011;50277;52.064;4.492;2024-03-07T02:51:02;49.20;;;28.80;;
64029;SDS011;50277;52.064;4.492;2024-03-07T02:53:27;50.70;;;30.08;;
64029;SDS011;50277;52.064;4.492;2024-03-07T02:55:53;53.50;;;30.67;;
64029;SDS011;50277;52.064;4.492;2024-03-07T02:58:18;52.17;;;30.63;;
64029;SDS011;50277;52.064;4.492;2024-03-07T03:00:43;53.35;;;30.02;;
64029;SDS011;50277;52.064;4.492;2024-03-07T03:03:09;55.83;;;30.13;;
64029;SDS011;50277;52.064;4.492;2024-03-07T03:05:35;48.63;;;30.13;;
64029;SDS011;50277;52.064;4.492;2024-03-07T03:08:00;50.38;;;29.27;;
64029;SDS011;50277;52.064;4.492;2024-03-07T03:10:26;57.13;;;30.95;;
64029;SDS011;50277;52.064;4.492;2024-03-07T03:12:54;52.53;;;29.42;;
64029;SDS011;50277;52.064;4.492;2024-03-07T03:15:20;53.35;;;30.98;;
64029;SDS011;50277;52.064;4.492;2024-03-07T03:17:46;53.65;;;30.67;;
64029;SDS011;50277;52.064;4.492;2024-03-07T03:20:12;49.63;;;30.48;;
64029;SDS011;50277;52.064;4.492;2024-03-07T03:22:54;53.88;;;31.55;;
64029;SDS011;50277;52.064;4.492;2024-03-07T03:25:20;50.25;;;29.30;;
64029;SDS011;50277;52.064;4.492;2024-03-07T03:27:46;53.97;;;31.98;;
64029;SDS011;50277;52.064;4.492;2024-03-07T03:30:12;52.22;;;30.90;;
64029;SDS011;50277;52.064;4.492;2024-03-07T03:32:41;56.17;;;31.73;;
64029;SDS011;50277;52.064;4.492;2024-03-07T03:35:07;61.22;;;32.58;;
64029;SDS011;50277;52.064;4.492;2024-03-07T03:37:38;54.03;;;30.23;;
64029;SDS011;50277;52.064;4.492;2024-03-07T03:40:05;52.28;;;30.65;;
64029;SDS011;50277;52.064;4.492;2024-03-07T03:42:31;52.30;;;31.02;;
64029;SDS011;50277;52.064;4.492;2024-03-07T03:44:56;57.60;;;32.85;;
64029;SDS011;50277;52.064;4.492;2024-03-07T03:47:21;55.40;;;31.17;;
64029;SDS011;50277;52.064;4.492;2024-03-07T03:49:47;60.40;;;33.25;;
64029;SDS011;50277;52.064;4.492;2024-03-07T03:52:12;58.13;;;31.75;;
64029;SDS011;50277;52.064;4.492;2024-03-07T03:54:38;53.17;;;32.17;;
64029;SDS011;50277;52.064;4.492;2024-03-07T03:57:03;59.85;;;33.40;;
64029;SDS011;50277;52.064;4.492;2024-03-07T03:59:29;71.35;;;34.25;;
64029;SDS011;50277;52.064;4.492;2024-03-07T04:01:54;60.53;;;31.42;;
64029;SDS011;50277;52.064;4.492;2024-03-07T04:04:19;60.05;;;34.58;;
64029;SDS011;50277;52.064;4.492;2024-03-07T04:06:45;61.92;;;35.35;;
64029;SDS011;50277;52.064;4.492;2024-03-07T04:09:10;61.38;;;33.97;;
64029;SDS011;50277;52.064;4.492;2024-03-07T04:11:35;63.05;;;34.15;;
64029;SDS011;50277;52.064;4.492;2024-03-07T04:14:01;54.33;;;32.10;;
64029;SDS011;50277;52.064;4.492;2024-03-07T04:16:27;70.53;;;34.20;;
64029;SDS011;50277;52.064;4.492;2024-03-07T04:18:52;57.85;;;33.28;;
64029;SDS011;50277;52.064;4.492;2024-03-07T04:21:17;58.95;;;34.42;;
64029;SDS011;50277;52.064;4.492;2024-03-07T04:23:43;58.60;;;33.42;;
64029;SDS011;50277;52.064;4.492;2024-03-07T04:26:10;63.55;;;34.15;;
64029;SDS011;50277;52.064;4.492;2024-03-07T04:28:36;59.67;;;33.90;;
64029;SDS011;50277;52.064;4.492;2024-03-07T04:31:02;63.45;;;34.20;;
64029;SDS011;50277;52.064;4.492;2024-03-07T04:33:27;51.67;;;31.42;;
64029;SDS011;50277;52.064;4.492;2024-03-07T04:35:53;59.03;;;34.28;;
64029;SDS011;50277;52.064;4.492;2024-03-07T04:38:18;61.88;;;34.53;;
64029;SDS011;50277;52.064;4.492;2024-03-07T04:40:44;56.33;;;32.35;;
64029;SDS011;50277;52.064;4.492;2024-03-07T04:43:09;57.40;;;34.90;;
64029;SDS011;50277;52.064;4.492;2024-03-07T04:45:35;56.97;;;33.72;;
64029;SDS011;50277;52.064;4.492;2024-03-07T04:48:01;57.60;;;34.58;;
64029;SDS011;50277;52.064;4.492;2024-03-07T04:50:26;66.50;;;35.05;;
64029;SDS011;50277;52.064;4.492;2024-03-07T04:52:51;56.80;;;34.15;;
64029;SDS011;50277;52.064;4.492;2024-03-07T04:55:17;59.17;;;33.92;;
64029;SDS011;50277;52.064;4.492;2024-03-07T04:57:43;58.80;;;33.88;;
64029;SDS011;50277;52.064;4.492;2024-03-07T05:00:09;61.17;;;34.13;;
64029;SDS011;50277;52.064;4.492;2024-03-07T05:02:44;58.95;;;34.40;;
64029;SDS011;50277;52.064;4.492;2024-03-07T05:05:11;55.47;;;33.42;;
64029;SDS011;50277;52.064;4.492;2024-03-07T05:07:37;58.75;;;34.58;;
64029;SDS011;50277;52.064;4.492;2024-03-07T05:10:03;61.70;;;36.10;;
64029;SDS011;50277;52.064;4.492;2024-03-07T05:12:30;60.25;;;34.65;;
64029;SDS011;50277;52.064;4.492;2024-03-07T05:14:55;64.18;;;35.00;;
64029;SDS011;50277;52.064;4.492;2024-03-07T05:17:21;59.03;;;33.67;;
64029;SDS011;50277;52.064;4.492;2024-03-07T05:19:47;54.35;;;33.88;;
64029;SDS011;50277;52.064;4.492;2024-03-07T05:22:14;56.13;;;33.78;;
64029;SDS011;50277;52.064;4.492;2024-03-07T05:24:41;68.72;;;34.55;;
64029;SDS011;50277;52.064;4.492;2024-03-07T05:27:07;64.03;;;34.83;;
64029;SDS011;50277;52.064;4.492;2024-03-07T05:29:33;64.85;;;36.20;;
64029;SDS011;50277;52.064;4.492;2024-03-07T05:32:18;58.83;;;34.30;;
64029;SDS011;50277;52.064;4.492;2024-03-07T05:34:45;61.03;;;33.83;;
64029;SDS011;50277;52.064;4.492;2024-03-07T05:37:10;58.17;;;33.47;;
64029;SDS011;50277;52.064;4.492;2024-03-07T05:39:35;57.35;;;33.92;;
64029;SDS011;50277;52.064;4.492;2024-03-07T05:42:01;56.20;;;33.22;;
64029;SDS011;50277;52.064;4.492;2024-03-07T05:44:26;61.22;;;33.85;;
64029;SDS011;50277;52.064;4.492;2024-03-07T05:46:51;59.72;;;35.00;;
64029;SDS011;50277;52.064;4.492;2024-03-07T05:49:17;58.67;;;33.15;;
64029;SDS011;50277;52.064;4.492;2024-03-07T05:51:42;60.03;;;32.47;;
64029;SDS011;50277;52.064;4.492;2024-03-07T05:54:09;62.55;;;35.42;;
64029;SDS011;50277;52.064;4.492;2024-03-07T05:56:36;59.63;;;34.13;;
64029;SDS011;50277;52.064;4.492;2024-03-07T05:59:05;55.30;;;31.90;;
64029;SDS011;50277;52.064;4.492;2024-03-07T06:01:32;65.78;;;33.97;;
64029;SDS011;50277;52.064;4.492;2024-03-07T06:04:04;56.08;;;34.30;;
64029;SDS011;50277;52.064;4.492;2024-03-07T06:06:31;56.97;;;32.40;;
64029;SDS011;50277;52.064;4.492;2024-03-07T06:08:58;59.10;;;32.35;;
64029;SDS011;50277;52.064;4.492;2024-03-07T06:11:23;55.67;;;32.63;;
64029;SDS011;50277;52.064;4.492;2024-03-07T06:13:49;62.65;;;34.92;;
64029;SDS011;50277;52.064;4.492;2024-03-07T06:16:14;58.22;;;33.30;;
64029;SDS011;50277;52.064;4.492;2024-03-07T06:18:43;60.42;;;34.60;;
64029;SDS011;50277;52.064;4.492;2024-03-07T06:21:10;61.38;;;33.28;;
64029;SDS011;50277;52.064;4.492;2024-03-07T06:23:35;57.70;;;33.92;;
64029;SDS011;50277;52.064;4.492;2024-03-07T06:26:00;57.65;;;33.58;;
64029;SDS011;50277;52.064;4.492;2024-03-07T06:28:31;66.10;;;34.78;;
64029;SDS011;50277;52.064;4.492;2024-03-07T06:30:56;62.60;;;33.70;;
64029;SDS011;50277;52.064;4.492;2024-03-07T06:33:22;59.75;;;34.30;;
64029;SDS011;50277;52.064;4.492;2024-03-07T06:35:47;57.45;;;33.10;;
64029;SDS011;50277;52.064;4.492;2024-03-07T06:38:13;55.95;;;34.03;;
64029;SDS011;50277;52.064;4.492;2024-03-07T06:40:39;56.88;;;34.35;;
64029;SDS011;50277;52.064;4.492;2024-03-07T06:43:05;55.83;;;32.63;;
64029;SDS011;50277;52.064;4.492;2024-03-07T06:45:37;55.20;;;32.60;;
64029;SDS011;50277;52.064;4.492;2024-03-07T06:48:04;58.83;;;33.63;;
64029;SDS011;50277;52.064;4.492;2024-03-07T06:52:57;51.30;;;30.85;;
64029;SDS011;50277;52.064;4.492;2024-03-07T06:55:22;52.88;;;32.08;;
64029;SDS011;50277;52.064;4.492;2024-03-07T06:57:48;53.85;;;31.45;;
64029;SDS011;50277;52.064;4.492;2024-03-07T07:00:13;52.55;;;31.10;;
64029;SDS011;50277;52.064;4.492;2024-03-07T07:02:45;51.45;;;30.05;;
64029;SDS011;50277;52.064;4.492;2024-03-07T07:05:10;54.20;;;30.88;;
64029;SDS011;50277;52.064;4.492;2024-03-07T07:07:36;55.47;;;31.10;;
64029;SDS011;50277;52.064;4.492;2024-03-07T07:10:08;48.55;;;30.40;;
64029;SDS011;50277;52.064;4.492;2024-03-07T07:12:47;57.20;;;31.02;;
64029;SDS011;50277;52.064;4.492;2024-03-07T07:15:18;51.78;;;31.05;;
64029;SDS011;50277;52.064;4.492;2024-03-07T07:17:46;55.22;;;31.52;;
64029;SDS011;50277;52.064;4.492;2024-03-07T07:20:14;54.47;;;29.95;;
64029;SDS011;50277;52.064;4.492;2024-03-07T07:22:44;49.33;;;31.20;;
64029;SDS011;50277;52.064;4.492;2024-03-07T07:25:11;48.88;;;29.65;;
64029;SDS011;50277;52.064;4.492;2024-03-07T07:27:45;50.40;;;29.95;;
64029;SDS011;50277;52.064;4.492;2024-03-07T07:30:12;51.35;;;31.58;;
64029;SDS011;50277;52.064;4.492;2024-03-07T07:32:38;49.97;;;30.25;;
64029;SDS011;50277;52.064;4.492;2024-03-07T07:35:04;48.92;;;28.15;;
64029;SDS011;50277;52.064;4.492;2024-03-07T07:37:34;50.08;;;29.48;;
64029;SDS011;50277;52.064;4.492;2024-03-07T07:40:00;43.13;;;27.83;;
64029;SDS011;50277;52.064;4.492;2024-03-07T07:42:26;54.67;;;28.65;;
64029;SDS011;50277;52.064;4.492;2024-03-07T07:44:53;45.38;;;27.75;;
64029;SDS011;50277;52.064;4.492;2024-03-07T07:47:18;48.40;;;28.92;;
64029;SDS011;50277;52.064;4.492;2024-03-07T07:49:44;49.17;;;28.80;;
64029;SDS011;50277;52.064;4.492;2024-03-07T07:52:09;44.55;;;29.30;;
64029;SDS011;50277;52.064;4.492;2024-03-07T07:54:35;53.40;;;27.90;;
64029;SDS011;50277;52.064;4.492;2024-03-07T07:57:00;40.05;;;27.40;;
64029;SDS011;50277;52.064;4.492;2024-03-07T07:59:25;45.63;;;26.90;;
64029;SDS011;50277;52.064;4.492;2024-03-07T08:01:51;46.30;;;28.10;;
64029;SDS011;50277;52.064;4.492;2024-03-07T08:04:18;41.80;;;28.33;;
64029;SDS011;50277;52.064;4.492;2024-03-07T08:06:43;37.75;;;25.67;;
64029;SDS011;50277;52.064;4.492;2024-03-07T08:09:08;41.92;;;25.98;;
64029;SDS011;50277;52.064;4.492;2024-03-07T08:11:35;39.33;;;25.20;;
64029;SDS011;50277;52.064;4.492;2024-03-07T08:14:01;37.83;;;24.83;;
64029;SDS011;50277;52.064;4.492;2024-03-07T08:16:27;43.35;;;27.05;;
64029;SDS011;50277;52.064;4.492;2024-03-07T08:18:53;38.25;;;25.10;;
64029;SDS011;50277;52.064;4.492;2024-03-07T08:21:18;36.70;;;25.23;;
64029;SDS011;50277;52.064;4.492;2024-03-07T08:23:43;38.78;;;25.65;;
64029;SDS011;50277;52.064;4.492;2024-03-07T08:26:09;35.95;;;25.23;;
64029;SDS011;50277;52.064;4.492;2024-03-07T08:28:34;34.80;;;24.30;;
64029;SDS011;50277;52.064;4.492;2024-03-07T08:30:59;36.03;;;22.92;;
64029;SDS011;50277;52.064;4.492;2024-03-07T08:33:25;36.20;;;23.48;;
64029;SDS011;50277;52.064;4.492;2024-03-07T08:35:51;35.30;;;23.45;;
64029;SDS011;50277;52.064;4.492;2024-03-07T08:38:18;34.22;;;22.48;;
64029;SDS011;50277;52.064;4.492;2024-03-07T08:40:43;30.83;;;22.88;;
64029;SDS011;50277;52.064;4.492;2024-03-07T08:43:09;35.17;;;24.83;;
64029;SDS011;50277;52.064;4.492;2024-03-07T08:45:35;33.88;;;23.73;;
64029;SDS011;50277;52.064;4.492;2024-03-07T08:48:00;30.52;;;22.75;;
64029;SDS011;50277;52.064;4.492;2024-03-07T08:50:26;29.60;;;22.40;;
64029;SDS011;50277;52.064;4.492;2024-03-07T08:52:53;29.38;;;22.10;;
64029;SDS011;50277;52.064;4.492;2024-03-07T08:55:24;28.33;;;22.05;;
64029;SDS011;50277;52.064;4.492;2024-03-07T08:57:50;28.98;;;21.70;;
64029;SDS011;50277;52.064;4.492;2024-03-07T09:00:16;29.33;;;21.55;;
64029;SDS011;50277;52.064;4.492;2024-03-07T09:02:55;32.03;;;21.70;;
64029;SDS011;50277;52.064;4.492;2024-03-07T09:05:24;32.25;;;20.67;;
64029;SDS011;50277;52.064;4.492;2024-03-07T09:07:51;28.80;;;20.20;;
64029;SDS011;50277;52.064;4.492;2024-03-07T09:10:17;25.33;;;19.65;;
64029;SDS011;50277;52.064;4.492;2024-03-07T09:12:43;27.33;;;19.27;;
64029;SDS011;50277;52.064;4.492;2024-03-07T09:15:09;23.83;;;18.70;;
64029;SDS011;50277;52.064;4.492;2024-03-07T09:17:36;24.33;;;18.75;;
64029;SDS011;50277;52.064;4.492;2024-03-07T09:20:02;23.50;;;18.85;;
64029;SDS011;50277;52.064;4.492;2024-03-07T09:22:30;24.17;;;18.63;;
64029;SDS011;50277;52.064;4.492;2024-03-07T09:24:56;22.52;;;17.42;;
64029;SDS011;50277;52.064;4.492;2024-03-07T09:27:22;22.77;;;18.20;;
64029;SDS011;50277;52.064;4.492;2024-03-07T09:29:47;25.48;;;17.98;;
64029;SDS011;50277;52.064;4.492;2024-03-07T09:32:13;23.70;;;17.05;;
64029;SDS011;50277;52.064;4.492;2024-03-07T09:34:39;21.48;;;17.90;;
64029;SDS011;50277;52.064;4.492;2024-03-07T09:37:04;22.33;;;16.98;;
64029;SDS011;50277;52.064;4.492;2024-03-07T09:39:32;20.90;;;16.25;;
64029;SDS011;50277;52.064;4.492;2024-03-07T09:41:59;29.02;;;16.20;;
64029;SDS011;50277;52.064;4.492;2024-03-07T09:44:28;19.23;;;16.75;;
64029;SDS011;50277;52.064;4.492;2024-03-07T09:46:57;24.17;;;16.85;;
64029;SDS011;50277;52.064;4.492;2024-03-07T09:49:27;25.92;;;17.02;;
64029;SDS011;50277;52.064;4.492;2024-03-07T09:51:53;22.75;;;17.00;;
64029;SDS011;50277;52.064;4.492;2024-03-07T09:54:21;20.42;;;15.48;;
64029;SDS011;50277;52.064;4.492;2024-03-07T09:56:49;23.65;;;16.20;;
64029;SDS011;50277;52.064;4.492;2024-03-07T09:59:16;15.98;;;14.27;;
64029;SDS011;50277;52.064;4.492;2024-03-07T10:01:45;18.85;;;15.18;;
64029;SDS011;50277;52.064;4.492;2024-03-07T10:04:12;21.35;;;15.30;;
64029;SDS011;50277;52.064;4.492;2024-03-07T10:06:39;19.17;;;15.67;;
64029;SDS011;50277;52.064;4.492;2024-03-07T10:09:06;20.90;;;15.38;;
64029;SDS011;50277;52.064;4.492;2024-03-07T10:11:32;21.05;;;15.30;;
64029;SDS011;50277;52.064;4.492;2024-03-07T10:14:00;17.27;;;14.77;;
64029;SDS011;50277;52.064;4.492;2024-03-07T10:16:28;19.53;;;15.10;;
64029;SDS011;50277;52.064;4.492;2024-03-07T10:18:53;17.33;;;14.90;;
64029;SDS011;50277;52.064;4.492;2024-03-07T10:21:19;17.30;;;14.82;;
64029;SDS011;50277;52.064;4.492;2024-03-07T10:23:45;20.20;;;14.60;;
64029;SDS011;50277;52.064;4.492;2024-03-07T10:26:10;21.08;;;14.88;;
64029;SDS011;50277;52.064;4.492;2024-03-07T10:28:37;17.25;;;13.60;;
64029;SDS011;50277;52.064;4.492;2024-03-07T10:31:03;15.37;;;13.13;;
64029;SDS011;50277;52.064;4.492;2024-03-07T10:33:29;16.63;;;13.15;;
64029;SDS011;50277;52.064;4.492;2024-03-07T10:35:59;17.42;;;13.77;;
64029;SDS011;50277;52.064;4.492;2024-03-07T10:38:25;15.40;;;12.88;;
64029;SDS011;50277;52.064;4.492;2024-03-07T10:40:54;17.10;;;13.73;;
64029;SDS011;50277;52.064;4.492;2024-03-07T10:43:20;14.10;;;12.25;;
64029;SDS011;50277;52.064;4.492;2024-03-07T10:45:48;18.50;;;13.68;;
64029;SDS011;50277;52.064;4.492;2024-03-07T10:48:14;18.75;;;12.27;;
64029;SDS011;50277;52.064;4.492;2024-03-07T10:55:47;13.63;;;11.82;;
64029;SDS011;50277;52.064;4.492;2024-03-07T10:58:22;16.98;;;11.95;;
64029;SDS011;50277;52.064;4.492;2024-03-07T11:00:52;14.65;;;12.15;;
64029;SDS011;50277;52.064;4.492;2024-03-07T11:03:19;13.25;;;11.65;;
64029;SDS011;50277;52.064;4.492;2024-03-07T11:05:45;13.23;;;11.23;;
64029;SDS011;50277;52.064;4.492;2024-03-07T11:08:11;14.18;;;11.82;;
64029;SDS011;50277;52.064;4.492;2024-03-07T11:10:37;14.23;;;12.20;;
64029;SDS011;50277;52.064;4.492;2024-03-07T11:13:07;17.20;;;11.57;;
64029;SDS011;50277;52.064;4.492;2024-03-07T11:15:35;18.85;;;11.75;;
64029;SDS011;50277;52.064;4.492;2024-03-07T11:18:01;12.57;;;11.25;;
64029;SDS011;50277;52.064;4.492;2024-03-07T11:20:31;16.65;;;12.13;;
64029;SDS011;50277;52.064;4.492;2024-03-07T11:22:59;15.18;;;12.40;;
64029;SDS011;50277;52.064;4.492;2024-03-07T11:25:26;14.57;;;11.75;;
64029;SDS011;50277;52.064;4.492;2024-03-07T11:27:55;19.65;;;12.93;;
64029;SDS011;50277;52.064;4.492;2024-03-07T11:30:25;14.38;;;12.13;;
64029;SDS011;50277;52.064;4.492;2024-03-07T11:32:52;16.33;;;12.18;;
64029;SDS011;50277;52.064;4.492;2024-03-07T11:35:22;17.17;;;12.65;;
64029;SDS011;50277;52.064;4.492;2024-03-07T11:38:02;16.35;;;12.20;;
64029;SDS011;50277;52.064;4.492;2024-03-07T11:42:54;18.05;;;13.20;;
64029;SDS011;50277;52.064;4.492;2024-03-07T11:45:29;18.33;;;12.88;;
64029;SDS011;50277;52.064;4.492;2024-03-07T11:47:58;19.13;;;13.35;;
64029;SDS011;50277;52.064;4.492;2024-03-07T11:50:37;15.05;;;12.55;;
64029;SDS011;50277;52.064;4.492;2024-03-07T11:53:04;16.75;;;11.85;;
64029;SDS011;50277;52.064;4.492;2024-03-07T11:55:32;17.50;;;12.45;;
64029;SDS011;50277;52.064;4.492;2024-03-07T11:58:06;19.42;;;13.02;;
64029;SDS011;50277;52.064;4.492;2024-03-07T12:00:37;15.98;;;13.05;;
64029;SDS011;50277;52.064;4.492;2024-03-07T12:03:10;18.75;;;13.43;;
64029;SDS011;50277;52.064;4.492;2024-03-07T12:05:39;19.83;;;12.35;;
64029;SDS011;50277;52.064;4.492;2024-03-07T12:08:05;20.52;;;12.70;;
64029;SDS011;50277;52.064;4.492;2024-03-07T12:10:31;17.10;;;12.93;;
64029;SDS011;50277;52.064;4.492;2024-03-07T12:12:56;19.48;;;13.30;;
64029;SDS011;50277;52.064;4.492;2024-03-07T12:15:22;18.90;;;12.82;;
64029;SDS011;50277;52.064;4.492;2024-03-07T12:17:48;19.38;;;12.68;;
64029;SDS011;50277;52.064;4.492;2024-03-07T12:20:15;18.10;;;12.63;;
64029;SDS011;50277;52.064;4.492;2024-03-07T12:22:56;18.88;;;12.18;;
64029;SDS011;50277;52.064;4.492;2024-03-07T12:25:22;16.73;;;12.13;;
64029;SDS011;50277;52.064;4.492;2024-03-07T12:30:37;19.77;;;12.30;;
64029;SDS011;50277;52.064;4.492;2024-03-07T12:33:16;15.80;;;11.75;;
64029;SDS011;50277;52.064;4.492;2024-03-07T12:35:42;18.25;;;12.68;;
64029;SDS011;50277;52.064;4.492;2024-03-07T12:38:08;18.38;;;12.80;;
64029;SDS011;50277;52.064;4.492;2024-03-07T12:40:36;19.75;;;12.05;;
64029;SDS011;50277;52.064;4.492;2024-03-07T12:43:02;16.30;;;11.48;;
64029;SDS011;50277;52.064;4.492;2024-03-07T12:45:38;17.08;;;12.27;;
64029;SDS011;50277;52.064;4.492;2024-03-07T12:48:08;15.27;;;11.98;;
64029;SDS011;50277;52.064;4.492;2024-03-07T12:50:39;18.52;;;12.00;;
64029;SDS011;50277;52.064;4.492;2024-03-07T12:53:05;19.25;;;13.02;;
64029;SDS011;50277;52.064;4.492;2024-03-07T12:55:36;20.95;;;13.80;;
64029;SDS011;50277;52.064;4.492;2024-03-07T12:58:08;20.60;;;13.63;;
64029;SDS011;50277;52.064;4.492;2024-03-07T13:00:34;19.42;;;12.43;;
64029;SDS011;50277;52.064;4.492;2024-03-07T13:03:00;21.60;;;13.15;;
64029;SDS011;50277;52.064;4.492;2024-03-07T13:05:26;18.00;;;12.65;;
64029;SDS011;50277;52.064;4.492;2024-03-07T13:07:51;21.65;;;13.68;;
64029;SDS011;50277;52.064;4.492;2024-03-07T13:10:17;19.08;;;13.23;;
64029;SDS011;50277;52.064;4.492;2024-03-07T13:12:45;15.40;;;12.13;;
64029;SDS011;50277;52.064;4.492;2024-03-07T13:15:14;19.92;;;12.55;;
64029;SDS011;50277;52.064;4.492;2024-03-07T13:17:40;28.10;;;12.65;;
64029;SDS011;50277;52.064;4.492;2024-03-07T13:20:08;24.08;;;13.80;;
64029;SDS011;50277;52.064;4.492;2024-03-07T13:22:40;19.98;;;14.48;;
64029;SDS011;50277;52.064;4.492;2024-03-07T13:25:24;21.60;;;13.73;;
64029;SDS011;50277;52.064;4.492;2024-03-07T13:27:57;23.58;;;14.55;;
64029;SDS011;50277;52.064;4.492;2024-03-07T13:30:24;21.05;;;14.75;;
64029;SDS011;50277;52.064;4.492;2024-03-07T13:32:56;21.77;;;14.38;;
64029;SDS011;50277;52.064;4.492;2024-03-07T13:35:25;18.40;;;13.40;;
64029;SDS011;50277;52.064;4.492;2024-03-07T13:37:52;21.77;;;15.38;;
64029;SDS011;50277;52.064;4.492;2024-03-07T13:40:21;19.45;;;13.80;;
64029;SDS011;50277;52.064;4.492;2024-03-07T13:45:32;22.75;;;14.32;;
64029;SDS011;50277;52.064;4.492;2024-03-07T13:48:04;23.02;;;14.32;;
64029;SDS011;50277;52.064;4.492;2024-03-07T13:50:30;18.65;;;13.40;;
64029;SDS011;50277;52.064;4.492;2024-03-07T13:52:56;22.17;;;13.45;;
64029;SDS011;50277;52.064;4.492;2024-03-07T13:55:48;23.88;;;14.90;;
64029;SDS011;50277;52.064;4.492;2024-03-07T14:23:34;15.10;;;11.45;;
64029;SDS011;50277;52.064;4.492;2024-03-07T14:29:12;17.25;;;12.43;;
64029;SDS011;50277;52.064;4.492;2024-03-07T14:31:45;14.50;;;11.05;;
64029;SDS011;50277;52.064;4.492;2024-03-07T14:36:46;15.20;;;10.52;;
64029;SDS011;50277;52.064;4.492;2024-03-07T14:39:18;18.58;;;11.10;;
64029;SDS011;50277;52.064;4.492;2024-03-07T14:44:19;14.63;;;10.77;;
64029;SDS011;50277;52.064;4.492;2024-03-07T14:46:45;18.75;;;10.80;;
64029;SDS011;50277;52.064;4.492;2024-03-07T14:49:14;17.20;;;11.23;;
64029;SDS011;50277;52.064;4.492;2024-03-07T14:51:40;16.00;;;10.83;;
64029;SDS011;50277;52.064;4.492;2024-03-07T14:54:06;17.77;;;10.85;;
64029;SDS011;50277;52.064;4.492;2024-03-07T14:56:32;17.17;;;10.27;;
64029;SDS011;50277;52.064;4.492;2024-03-07T14:58:59;17.85;;;10.90;;
64029;SDS011;50277;52.064;4.492;2024-03-07T15:01:26;15.35;;;10.77;;
64029;SDS011;50277;52.064;4.492;2024-03-07T15:03:52;14.88;;;11.27;;
64029;SDS011;50277;52.064;4.492;2024-03-07T15:06:18;15.95;;;10.60;;
64029;SDS011;50277;52.064;4.492;2024-03-07T15:08:46;15.07;;;10.85;;